Time;durP1;ratioP1;P1;durP2;ratioP2;P2;SDS_P1;SDS_P2;PMS_P1;PMS_P2;Temp;Humidity;BMP_temperature;BMP_pressure;BME280_temperature;BME280_humidity;BME280_pressure;Samples;Min_cycle;Max_cycle;Signal;HPM_P1;HPM_P2
2024/03/08 00:00:18;;;;;;;6.68;6.28;;;;;;;2.86;100.00;101189.31;5060094;28;20040;-84
2024/03/08 00:02:45;;;;;;;3.30;3.13;;;;;;;2.73;100.00;101183.56;5055899;28;20113;-84
2024/03/08 00:05:12;;;;;;;2.85;2.72;;;;;;;2.78;100.00;101180.31;5053367;28;20049;-83
2024/03/08 00:07:39;;;;;;;0.30;0.30;;;;;;;2.82;100.00;101183.09;5059995;28;20045;-84
2024/03/08 00:10:07;;;;;;;5.18;2.92;;;;;;;2.60;100.00;101155.38;5057612;28;20056;-84
2024/03/08 00:12:32;;;;;;;2.05;1.95;;;;;;;2.68;100.00;101173.84;5061916;28;20060;-83
2024/03/08 00:14:58;;;;;;;3.92;3.65;;;;;;;2.80;100.00;101184.75;5068247;28;20140;-83
2024/03/08 00:17:27;;;;;;;2.85;2.65;;;;;;;2.57;100.00;101142.25;5067424;28;20072;-83
2024/03/08 00:19:54;;;;;;;19.02;17.77;;;;;;;2.81;100.00;101175.25;5072964;28;20097;-81
2024/03/08 00:22:19;;;;;;;1.38;1.27;;;;;;;2.56;100.00;101129.28;5069226;28;20049;-84
2024/03/08 00:24:45;;;;;;;4.40;4.20;;;;;;;2.79;100.00;101172.63;5071888;28;20109;-85
2024/03/08 00:27:11;;;;;;;1.13;1.13;;;;;;;2.53;100.00;101127.44;5081030;28;20043;-85
2024/03/08 00:29:40;;;;;;;0.30;0.30;;;;;;;2.73;100.00;101149.00;5077006;28;20052;-85
2024/03/08 00:32:07;;;;;;;2.70;2.60;;;;;;;2.87;100.00;101159.97;5080015;28;20104;-84
2024/03/08 00:34:36;;;;;;;0.90;0.90;;;;;;;2.51;100.00;101117.00;5080961;28;20072;-84
2024/03/08 00:37:03;;;;;;;2.15;2.05;;;;;;;2.71;100.00;101148.94;5066939;28;20052;-84
2024/03/08 00:39:29;;;;;;;1.95;1.05;;;;;;;2.49;100.00;101105.69;5058549;28;20036;-85
2024/03/08 00:41:55;;;;;;;1.85;1.75;;;;;;;2.77;100.00;101156.09;5060737;28;20463;-84
2024/03/08 00:44:20;;;;;;;1.75;1.00;;;;;;;2.80;100.00;101135.50;5063435;28;20052;-85
2024/03/08 00:46:46;;;;;;;0.93;0.93;;;;;;;2.68;100.00;101128.09;5055908;28;20075;-83
2024/03/08 00:49:12;;;;;;;3.90;3.60;;;;;;;2.35;100.00;101087.78;5055601;28;20044;-84
2024/03/08 00:51:38;;;;;;;1.10;0.90;;;;;;;2.55;100.00;101115.41;5059106;28;20041;-84
2024/03/08 00:54:04;;;;;;;0.63;0.63;;;;;;;2.67;100.00;101139.28;5074234;28;20049;-83
2024/03/08 00:56:30;;;;;;;8.32;7.07;;;;;;;2.57;100.00;101134.50;5067344;28;20040;-83
2024/03/08 00:58:56;;;;;;;2.08;1.67;;;;;;;2.36;100.00;101089.53;5058016;28;20119;-84
2024/03/08 01:01:22;;;;;;;3.13;2.92;;;;;;;2.80;100.00;101134.63;5057634;28;20048;-86
2024/03/08 01:03:48;;;;;;;1.58;1.48;;;;;;;2.77;100.00;101145.75;5058899;28;20045;-84
2024/03/08 01:06:14;;;;;;;14.95;12.80;;;;;;;2.79;100.00;101125.09;5052580;28;20029;-85
2024/03/08 01:08:42;;;;;;;2.10;2.00;;;;;;;2.82;100.00;101118.31;5057523;28;20029;-84
2024/03/08 01:11:08;;;;;;;1.00;0.98;;;;;;;2.69;100.00;101090.09;5054866;28;20048;-84
2024/03/08 01:13:34;;;;;;;1.95;1.85;;;;;;;2.62;100.00;101080.28;5052023;28;20049;-83
2024/03/08 01:16:00;;;;;;;6.65;6.30;;;;;;;2.86;100.00;101112.44;5048382;28;20072;-84
2024/03/08 01:18:25;;;;;;;0.93;0.93;;;;;;;2.88;100.00;101103.03;5058177;28;20558;-84
2024/03/08 01:20:51;;;;;;;0.50;0.32;;;;;;;3.11;100.00;101124.75;5058018;28;20199;-84
2024/03/08 01:23:17;;;;;;;2.53;2.42;;;;;;;3.00;100.00;101104.34;5059298;28;20580;-82
2024/03/08 01:25:43;;;;;;;1.90;1.80;;;;;;;3.08;100.00;101097.78;5060227;28;20047;-88
2024/03/08 01:28:09;;;;;;;8.18;7.43;;;;;;;2.94;100.00;101084.25;5059966;28;20087;-88
2024/03/08 01:30:37;;;;;;;0.57;0.57;;;;;;;3.29;100.00;101085.69;5055556;28;20431;-88
2024/03/08 01:33:03;;;;;;;0.93;0.93;;;;;;;3.13;100.00;101080.72;5061722;28;20120;-85
2024/03/08 01:35:28;;;;;;;2.65;2.50;;;;;;;3.12;100.00;101076.34;5067990;28;20116;-87
2024/03/08 01:37:54;;;;;;;24.88;19.90;;;;;;;3.48;100.00;101121.03;5060349;28;20128;-89
2024/03/08 01:40:20;;;;;;;2.03;1.83;;;;;;;3.34;100.00;101115.28;5066329;28;20487;-87
2024/03/08 01:42:47;;;;;;;1.80;1.70;;;;;;;3.24;100.00;101087.22;5057396;28;20040;-87
2024/03/08 01:45:13;;;;;;;0.30;0.30;;;;;;;3.63;100.00;101115.59;5054738;28;21012;-89
2024/03/08 01:47:39;;;;;;;0.57;0.57;;;;;;;3.74;100.00;101111.69;5043295;28;20040;-88
2024/03/08 01:50:08;;;;;;;4.97;4.72;;;;;;;3.46;100.00;101114.88;5074639;28;20054;-88
2024/03/08 01:52:36;;;;;;;4.15;3.90;;;;;;;3.35;100.00;101085.94;5051557;28;20080;-90
2024/03/08 01:55:06;;;;;;;3.53;3.33;;;;;;;3.44;100.00;101089.72;5053267;28;20069;-87
2024/03/08 01:57:33;;;;;;;0.57;0.57;;;;;;;3.39;100.00;101128.44;5058169;28;20033;-88
2024/03/08 02:00:02;;;;;;;0.93;0.93;;;;;;;3.43;100.00;101122.56;5050413;28;20044;-86
2024/03/08 02:02:31;;;;;;;1.10;0.95;;;;;;;3.30;100.00;101086.56;5059875;28;20468;-88
2024/03/08 02:04:57;;;;;;;5.85;5.55;;;;;;;3.61;100.00;101087.81;5060892;28;20052;-88
2024/03/08 02:07:22;;;;;;;0.73;0.73;;;;;;;3.53;100.00;101090.97;5064304;28;20052;-88
2024/03/08 02:09:48;;;;;;;4.57;4.32;;;;;;;3.48;100.00;101127.94;5056161;28;20051;-88
2024/03/08 02:12:14;;;;;;;3.88;3.67;;;;;;;3.24;100.00;101095.00;5064226;28;20347;-87
2024/03/08 02:14:39;;;;;;;2.15;2.05;;;;;;;3.62;100.00;101094.75;5060513;28;20323;-86
2024/03/08 02:17:05;;;;;;;1.65;1.55;;;;;;;3.92;100.00;101119.28;5058517;28;20092;-88
2024/03/08 02:19:32;;;;;;;1.65;1.55;;;;;;;3.87;100.00;101081.91;5060781;28;20071;-87
2024/03/08 02:21:59;;;;;;;0.40;0.40;;;;;;;4.11;100.00;101131.25;5061910;28;20067;-88
2024/03/08 02:24:25;;;;;;;2.55;1.48;;;;;;;4.01;100.00;101093.69;5063960;28;20049;-88
2024/03/08 02:26:51;;;;;;;0.68;0.68;;;;;;;4.00;100.00;101078.94;5062481;28;20047;-88
2024/03/08 02:29:18;;;;;;;45.45;9.02;;;;;;;4.03;100.00;101111.94;5070380;28;20044;-86
2024/03/08 02:31:45;;;;;;;4.78;4.57;;;;;;;3.62;100.00;101076.59;5069889;28;20040;-84
2024/03/08 02:34:10;;;;;;;0.52;0.52;;;;;;;4.14;100.00;101114.91;5045582;28;20040;-89
2024/03/08 02:36:38;;;;;;;3.20;3.00;;;;;;;4.28;100.00;101110.22;5062832;28;20067;-87
2024/03/08 02:39:05;;;;;;;10.48;9.82;;;;;;;4.35;100.00;101112.22;5072301;28;20047;-88
2024/03/08 02:41:31;;;;;;;0.47;0.47;;;;;;;4.17;100.00;101117.66;5076785;28;20037;-85
2024/03/08 02:43:56;;;;;;;1.00;0.95;;;;;;;3.96;100.00;101117.72;5049663;28;20103;-85
2024/03/08 02:46:22;;;;;;;0.40;0.40;;;;;;;3.54;100.00;101081.50;5059212;28;20033;-84
2024/03/08 02:48:48;;;;;;;0.40;0.40;;;;;;;4.14;100.00;101102.81;5060181;28;20080;-83
2024/03/08 02:51:15;;;;;;;10.07;1.63;;;;;;;3.43;100.00;101086.25;5061224;28;20037;-85
2024/03/08 02:53:42;;;;;;;3.08;2.88;;;;;;;3.78;100.00;101076.34;5051413;28;20056;-84
2024/03/08 02:56:12;;;;;;;5.65;5.35;;;;;;;4.09;100.00;101119.94;5058053;28;20132;-83
2024/03/08 02:58:38;;;;;;;0.43;0.43;;;;;;;4.17;100.00;101125.44;5052702;28;20080;-83
2024/03/08 03:01:04;;;;;;;1.55;1.45;;;;;;;3.88;100.00;101116.53;5061171;28;20098;-86
2024/03/08 03:03:29;;;;;;;0.63;0.63;;;;;;;3.52;100.00;101106.50;5048151;28;20132;-84
2024/03/08 03:05:55;;;;;;;1.20;1.20;;;;;;;3.38;100.00;101086.06;5072089;28;20408;-85
2024/03/08 03:08:21;;;;;;;0.30;0.30;;;;;;;3.73;100.00;101116.81;5065266;28;20049;-84
2024/03/08 03:10:47;;;;;;;4.88;4.63;;;;;;;3.35;100.00;101118.78;5058052;28;20044;-84
2024/03/08 03:13:14;;;;;;;0.30;0.30;;;;;;;3.47;100.00;101121.88;5062289;28;20079;-85
2024/03/08 03:15:43;;;;;;;2.25;2.15;;;;;;;3.16;100.00;101120.63;5058141;28;20109;-86
2024/03/08 03:18:08;;;;;;;4.03;1.85;;;;;;;3.11;100.00;101098.81;5057730;28;20408;-85
2024/03/08 03:20:39;;;;;;;1.90;1.67;;;;;;;3.09;100.00;101116.00;5064150;28;20136;-86
2024/03/08 03:23:08;;;;;;;4.38;4.18;;;;;;;3.24;100.00;101109.69;5063531;28;20740;-87
2024/03/08 03:25:35;;;;;;;0.75;0.73;;;;;;;3.28;100.00;101132.34;5064522;28;20060;-85
2024/03/08 03:28:01;;;;;;;14.85;14.07;;;;;;;3.23;100.00;101094.94;5057305;28;20504;-85
2024/03/08 03:30:30;;;;;;;2.35;2.25;;;;;;;2.94;100.00;101086.84;5063395;28;20500;-83
2024/03/08 03:33:00;;;;;;;7.05;6.53;;;;;;;3.30;100.00;101130.66;5055576;28;20036;-84
2024/03/08 03:35:26;;;;;;;0.50;0.50;;;;;;;3.06;100.00;101108.09;5054192;28;20041;-85
2024/03/08 03:38:05;;;;;;;8.30;7.82;;;;;;;2.94;100.00;101085.13;5067790;28;20044;-84
2024/03/08 03:40:32;;;;;;;1.00;1.00;;;;;;;3.18;100.00;101123.25;5063687;28;20068;-84
2024/03/08 03:42:57;;;;;;;1.33;1.33;;;;;;;3.01;100.00;101077.63;5060367;28;20053;-84
2024/03/08 03:45:24;;;;;;;2.15;1.95;;;;;;;3.12;100.00;101123.03;5063298;28;20049;-84
2024/03/08 03:47:50;;;;;;;4.63;4.30;;;;;;;3.13;100.00;101123.06;5060991;28;20055;-84
2024/03/08 03:50:16;;;;;;;7.88;7.40;;;;;;;3.04;100.00;101116.63;5055954;28;20073;-84
2024/03/08 03:52:42;;;;;;;12.05;11.18;;;;;;;2.90;100.00;101087.53;5070027;28;20044;-84
2024/03/08 03:55:08;;;;;;;6.40;5.88;;;;;;;2.90;100.00;101090.13;5068364;28;21590;-89
2024/03/08 03:57:34;;;;;;;4.90;4.68;;;;;;;3.12;100.00;101118.72;5091951;28;20074;-88
2024/03/08 03:59:59;;;;;;;1.20;1.13;;;;;;;3.08;100.00;101127.19;5093880;28;20028;-85
2024/03/08 04:02:27;;;;;;;0.95;0.95;;;;;;;3.19;100.00;101119.00;5122964;28;20028;-84
2024/03/08 04:04:54;;;;;;;1.55;1.27;;;;;;;3.03;100.00;101102.78;5085037;28;20104;-86
2024/03/08 04:07:20;;;;;;;6.00;5.70;;;;;;;3.29;100.00;101092.59;5099844;28;20082;-85
2024/03/08 04:09:46;;;;;;;0.40;0.40;;;;;;;3.18;100.00;101136.22;5075892;28;20147;-87
2024/03/08 04:12:15;;;;;;;1.02;0.93;;;;;;;2.99;100.00;101120.72;5081011;28;20123;-83
2024/03/08 04:14:42;;;;;;;23.30;9.95;;;;;;;2.99;100.00;101100.00;5074109;28;20834;-85
2024/03/08 04:17:08;;;;;;;8.13;3.40;;;;;;;2.98;100.00;101126.75;5059032;28;20045;-86
2024/03/08 04:19:35;;;;;;;6.47;6.15;;;;;;;3.13;100.00;101132.56;5086080;28;20063;-84
2024/03/08 04:22:02;;;;;;;0.32;0.32;;;;;;;3.19;100.00;101124.16;5075307;28;20503;-86
2024/03/08 04:24:27;;;;;;;2.05;1.95;;;;;;;2.92;100.00;101091.06;5063093;28;20212;-86
2024/03/08 04:26:54;;;;;;;3.58;3.30;;;;;;;3.17;100.00;101134.47;5094403;28;20503;-87
2024/03/08 04:29:21;;;;;;;4.53;4.22;;;;;;;3.08;100.00;101090.00;5055376;28;20730;-86
2024/03/08 04:31:47;;;;;;;69.07;20.50;;;;;;;3.01;100.00;101107.00;5080341;28;20049;-87
2024/03/08 04:34:13;;;;;;;0.93;0.93;;;;;;;3.11;100.00;101123.84;5056744;28;21224;-87
2024/03/08 04:36:39;;;;;;;1.65;1.55;;;;;;;2.88;100.00;101130.63;5079173;28;20506;-87
2024/03/08 04:39:04;;;;;;;11.07;3.20;;;;;;;2.62;100.00;101073.44;5065553;28;20052;-89
2024/03/08 04:41:30;;;;;;;2.22;2.13;;;;;;;2.85;100.00;101109.78;5059710;28;20188;-88
2024/03/08 04:43:57;;;;;;;11.35;7.88;;;;;;;3.03;100.00;101112.28;5044453;28;20590;-82
2024/03/08 04:46:23;;;;;;;0.30;0.30;;;;;;;3.02;100.00;101131.22;5069389;28;20507;-85
2024/03/08 04:48:49;;;;;;;1.27;1.15;;;;;;;3.00;100.00;101127.69;5072924;28;20044;-84
2024/03/08 04:51:16;;;;;;;3.90;3.70;;;;;;;2.85;100.00;101105.47;5056714;28;20182;-85
2024/03/08 04:53:42;;;;;;;0.30;0.30;;;;;;;2.81;100.00;101102.69;5072684;28;20052;-87
2024/03/08 04:56:08;;;;;;;1.00;0.85;;;;;;;2.87;100.00;101118.50;5076737;28;20044;-85
2024/03/08 04:58:37;;;;;;;1.80;1.73;;;;;;;3.11;100.00;101141.97;5087970;28;20041;-88
2024/03/08 05:01:03;;;;;;;0.57;0.57;;;;;;;2.96;100.00;101108.53;5062927;28;20056;-87
2024/03/08 05:03:30;;;;;;;1.38;1.38;;;;;;;3.21;100.00;101146.75;5080176;28;20040;-87
2024/03/08 05:05:56;;;;;;;0.30;0.30;;;;;;;2.97;100.00;101133.63;5091393;28;20036;-87
2024/03/08 05:08:22;;;;;;;0.57;0.57;;;;;;;3.16;100.00;101140.47;5094633;28;20056;-87
2024/03/08 05:10:48;;;;;;;1.48;1.38;;;;;;;3.43;100.00;101135.53;5085888;28;20672;-86
2024/03/08 05:13:13;;;;;;;3.50;3.30;;;;;;;3.21;100.00;101149.34;5092976;28;20108;-85
2024/03/08 05:15:39;;;;;;;3.50;3.30;;;;;;;2.80;100.00;101121.66;5090220;28;20143;-86
2024/03/08 05:18:06;;;;;;;0.65;0.65;;;;;;;2.95;100.00;101146.53;5081631;28;20031;-88
2024/03/08 05:20:32;;;;;;;1.13;1.10;;;;;;;2.95;100.00;101132.69;5058918;28;20040;-86
2024/03/08 05:23:00;;;;;;;2.67;2.47;;;;;;;3.26;100.00;101160.78;5076995;28;20507;-86
2024/03/08 05:25:26;;;;;;;0.75;0.75;;;;;;;2.87;100.00;101084.81;5076536;28;20070;-86
2024/03/08 05:27:52;;;;;;;0.40;0.40;;;;;;;3.36;100.00;101162.06;5079928;28;20080;-85
2024/03/08 05:30:18;;;;;;;1.40;1.30;;;;;;;3.33;100.00;101175.78;5060449;28;20055;-85
2024/03/08 05:32:45;;;;;;;16.13;10.77;;;;;;;2.73;100.00;101047.97;5070695;28;20476;-85
2024/03/08 05:35:12;;;;;;;0.77;0.52;;;;;;;3.36;100.00;101159.44;5069709;28;20492;-87
2024/03/08 05:37:41;;;;;;;4.28;4.07;;;;;;;3.09;100.00;101139.34;5079172;28;20839;-84
2024/03/08 05:40:11;;;;;;;0.70;0.70;;;;;;;3.20;100.00;101183.84;5078184;28;20090;-83
2024/03/08 05:42:38;;;;;;;16.85;15.30;;;;;;;3.14;100.00;101148.19;5100160;28;20040;-83
2024/03/08 05:45:06;;;;;;;2.40;2.30;;;;;;;3.77;100.00;101192.28;5085332;28;20057;-82
2024/03/08 05:47:32;;;;;;;1.70;1.55;;;;;;;3.26;100.00;101180.66;5074808;28;20037;-83
2024/03/08 05:49:59;;;;;;;14.15;13.48;;;;;;;3.63;100.00;101201.22;5086884;28;20039;-84
2024/03/08 05:52:25;;;;;;;0.40;0.40;;;;;;;3.48;100.00;101148.69;5072425;28;20070;-82
2024/03/08 05:54:52;;;;;;;1.85;1.75;;;;;;;3.57;100.00;101185.38;5082244;28;20059;-83
2024/03/08 05:57:17;;;;;;;0.30;0.30;;;;;;;3.91;100.00;101200.63;5060232;28;20044;-81
2024/03/08 05:59:43;;;;;;;0.52;0.52;;;;;;;3.78;100.00;101209.63;5080873;28;20035;-82
2024/03/08 06:02:10;;;;;;;1.27;1.27;;;;;;;3.46;100.00;101217.78;5067077;28;20578;-83
2024/03/08 06:04:37;;;;;;;0.50;0.50;;;;;;;2.94;100.00;101170.66;5083656;28;20192;-81
2024/03/08 06:07:03;;;;;;;14.57;5.38;;;;;;;3.50;100.00;101171.28;5086843;28;20071;-81
2024/03/08 06:09:29;;;;;;;0.40;0.40;;;;;;;3.65;100.00;101214.25;5088820;28;20075;-81
2024/03/08 06:11:57;;;;;;;0.43;0.43;;;;;;;4.00;100.00;101216.56;5085108;28;20501;-84
2024/03/08 06:14:23;;;;;;;0.75;0.75;;;;;;;3.37;100.00;101214.00;5087438;28;20393;-82
2024/03/08 06:16:50;;;;;;;2.22;2.13;;;;;;;3.05;100.00;101188.41;5080682;28;20507;-84
2024/03/08 06:19:15;;;;;;;0.40;0.40;;;;;;;3.42;100.00;101201.22;5075410;28;20067;-81
2024/03/08 06:21:41;;;;;;;0.88;0.85;;;;;;;3.95;100.00;101227.56;5090160;28;20043;-81
2024/03/08 06:24:07;;;;;;;0.82;0.82;;;;;;;3.49;100.00;101220.50;5072630;28;20352;-81
2024/03/08 06:26:32;;;;;;;0.85;0.85;;;;;;;3.77;100.00;101210.44;5083561;28;20131;-83
2024/03/08 06:28:58;;;;;;;1.70;1.60;;;;;;;3.89;100.00;101232.53;5082634;28;20138;-81
2024/03/08 06:31:24;;;;;;;0.30;0.30;;;;;;;3.56;100.00;101188.81;5082715;28;20620;-82
2024/03/08 06:33:50;;;;;;;0.93;0.93;;;;;;;4.14;100.00;101222.28;5078420;28;20053;-84
2024/03/08 06:36:21;;;;;;;0.77;0.77;;;;;;;3.61;100.00;101187.28;5093662;28;20040;-83
2024/03/08 06:38:49;;;;;;;0.30;0.30;;;;;;;3.91;100.00;101230.88;5067867;28;20484;-82
2024/03/08 06:41:16;;;;;;;0.30;0.30;;;;;;;3.93;100.00;101221.44;5073332;28;20074;-84
2024/03/08 06:43:43;;;;;;;5.30;5.00;;;;;;;4.33;100.00;101231.69;5064739;28;20415;-82
2024/03/08 06:46:09;;;;;;;2.15;2.05;;;;;;;4.17;100.00;101187.78;5047756;28;20033;-85
2024/03/08 06:48:37;;;;;;;2.72;2.60;;;;;;;4.33;100.00;101191.81;5080906;28;20052;-83
2024/03/08 06:51:04;;;;;;;1.25;1.08;;;;;;;4.60;100.00;101230.97;5071730;28;20036;-82
2024/03/08 06:53:30;;;;;;;4.03;2.75;;;;;;;4.33;100.00;101199.59;5082906;28;20048;-83
2024/03/08 06:55:56;;;;;;;0.50;0.50;;;;;;;4.08;100.00;101198.69;5066111;28;20821;-84
2024/03/08 06:58:21;;;;;;;0.77;0.77;;;;;;;4.48;100.00;101236.56;5076534;28;20062;-84
2024/03/08 07:00:51;;;;;;;0.73;0.70;;;;;;;3.93;100.00;101221.44;5066432;28;20040;-83
2024/03/08 07:03:17;;;;;;;3.17;3.03;;;;;;;4.22;100.00;101187.09;5071685;28;20048;-84
2024/03/08 07:05:43;;;;;;;8.40;6.82;;;;;;;3.88;100.00;101215.19;5088504;28;20032;-83
2024/03/08 07:08:09;;;;;;;1.20;1.20;;;;;;;4.39;100.00;101220.63;5076620;28;20103;-83
2024/03/08 07:10:37;;;;;;;3.70;3.33;;;;;;;3.76;100.00;101197.41;5079174;28;20075;-83
2024/03/08 07:13:02;;;;;;;17.90;10.85;;;;;;;4.29;100.00;101240.19;5080583;28;20158;-83
2024/03/08 07:15:28;;;;;;;1.00;1.00;;;;;;;4.12;100.00;101199.66;5089720;28;20043;-82
2024/03/08 07:17:54;;;;;;;2.90;2.75;;;;;;;4.40;100.00;101240.56;5085350;28;20059;-84
2024/03/08 07:20:21;;;;;;;0.93;0.93;;;;;;;4.62;100.00;101231.91;5076900;28;20186;-82
2024/03/08 07:22:53;;;;;;;0.40;0.40;;;;;;;4.91;100.00;101214.75;5052553;28;20048;-83
2024/03/08 07:25:20;;;;;;;0.35;0.35;;;;;;;5.10;100.00;101236.22;5080593;28;20038;-82
2024/03/08 07:27:54;;;;;;;3.35;2.88;;;;;;;4.77;100.00;101239.38;5081282;28;20059;-84
2024/03/08 07:33:06;;;;;;;1.85;1.75;;;;;;;4.46;100.00;101203.56;5079759;28;20059;-82
2024/03/08 07:35:33;;;;;;;28.55;10.15;;;;;;;4.31;100.00;101212.56;5070400;28;20141;-85
2024/03/08 07:37:59;;;;;;;0.43;0.43;;;;;;;4.82;100.00;101204.03;5087601;28;20063;-81
2024/03/08 07:40:26;;;;;;;7.72;4.10;;;;;;;5.17;100.00;101228.69;5089451;28;20055;-85
2024/03/08 07:42:51;;;;;;;1.27;1.20;;;;;;;5.13;100.00;101215.50;5077003;28;20052;-84
2024/03/08 07:45:17;;;;;;;0.70;0.70;;;;;;;4.82;100.00;101201.41;5065392;28;20071;-83
2024/03/08 07:47:43;;;;;;;5.25;1.48;;;;;;;5.04;100.00;101198.75;5071804;28;20040;-84
2024/03/08 07:50:09;;;;;;;2.67;2.47;;;;;;;4.99;100.00;101236.72;5063451;28;20047;-82
2024/03/08 07:52:38;;;;;;;1.42;0.98;;;;;;;4.41;100.00;101235.44;5089925;28;20553;-85
2024/03/08 07:55:04;;;;;;;1.83;1.77;;;;;;;3.97;100.00;101205.16;5078003;28;20051;-81
2024/03/08 07:57:30;;;;;;;0.40;0.40;;;;;;;4.78;100.00;101215.16;5089818;28;20126;-86
2024/03/08 07:59:57;;;;;;;3.33;3.13;;;;;;;5.07;100.00;101234.41;5086597;28;20503;-83
2024/03/08 08:02:23;;;;;;;2.35;2.15;;;;;;;4.13;100.00;101163.38;5084595;28;20071;-84
2024/03/08 08:04:48;;;;;;;6.32;5.22;;;;;;;4.17;100.00;101191.25;5080840;28;20071;-84
2024/03/08 08:07:14;;;;;;;0.30;0.30;;;;;;;4.93;100.00;101191.41;5083894;28;20090;-84
2024/03/08 08:09:42;;;;;;;8.77;6.25;;;;;;;5.39;100.00;101224.25;5082808;28;20885;-81
2024/03/08 08:12:11;;;;;;;3.13;2.92;;;;;;;5.48;100.00;101230.63;5077588;28;20036;-83
2024/03/08 08:14:41;;;;;;;0.40;0.40;;;;;;;5.68;100.00;101204.38;5088663;28;20127;-82
2024/03/08 08:17:08;;;;;;;1.35;1.25;;;;;;;5.72;100.00;101229.69;5088935;28;20561;-83
2024/03/08 08:19:35;;;;;;;0.30;0.30;;;;;;;4.88;100.00;101226.78;5089195;28;20722;-82
2024/03/08 08:22:03;;;;;;;0.68;0.68;;;;;;;4.65;100.00;101229.41;5083324;28;20056;-87
2024/03/08 08:24:29;;;;;;;1.65;1.55;;;;;;;4.68;100.00;101236.44;5070500;28;20052;-84
2024/03/08 08:26:55;;;;;;;5.32;5.07;;;;;;;4.47;100.00;101201.00;5087616;28;20095;-82
2024/03/08 08:29:21;;;;;;;4.03;1.55;;;;;;;5.35;100.00;101231.03;5078955;28;20044;-83
2024/03/08 08:31:49;;;;;;;6.40;6.10;;;;;;;5.48;100.00;101234.97;5092484;28;20122;-83
2024/03/08 08:34:18;;;;;;;2.28;2.17;;;;;;;5.72;100.00;101234.88;5085636;28;20074;-84
2024/03/08 08:36:44;;;;;;;4.78;4.50;;;;;;;5.03;100.00;101216.91;5082599;28;20071;-83
2024/03/08 08:39:12;;;;;;;0.38;0.38;;;;;;;5.46;100.00;101189.78;5086808;28;20036;-86
2024/03/08 08:41:38;;;;;;;2.25;2.05;;;;;;;5.63;100.00;101188.59;5084269;28;20755;-84
2024/03/08 08:44:03;;;;;;;0.50;0.50;;;;;;;5.50;100.00;101200.34;5091425;28;20040;-84
2024/03/08 08:46:29;;;;;;;4.55;4.28;;;;;;;5.23;100.00;101181.19;5090592;28;20048;-84
2024/03/08 08:48:54;;;;;;;1.05;1.02;;;;;;;4.71;100.00;101213.16;5087333;28;20059;-82
2024/03/08 08:51:20;;;;;;;1.35;1.30;;;;;;;4.43;100.00;101191.34;5063583;28;20040;-82
2024/03/08 08:53:47;;;;;;;7.05;6.70;;;;;;;4.95;100.00;101203.63;5088775;28;20111;-84
2024/03/08 08:56:13;;;;;;;2.15;2.05;;;;;;;5.66;100.00;101214.72;5089231;28;20055;-81
2024/03/08 08:58:48;;;;;;;0.40;0.40;;;;;;;4.35;100.00;101216.13;5077360;28;20047;-85
2024/03/08 09:01:14;;;;;;;1.17;1.15;;;;;;;4.57;100.00;101216.13;5083585;28;20043;-84
2024/03/08 09:03:41;;;;;;;3.45;3.20;;;;;;;4.65;100.00;101180.03;5098760;28;20028;-83
2024/03/08 09:06:10;;;;;;;2.42;2.33;;;;;;;4.59;100.00;101224.00;5082159;28;20040;-81
2024/03/08 09:08:37;;;;;;;8.55;8.10;;;;;;;5.08;100.00;101187.63;5079738;28;20103;-82
2024/03/08 09:11:05;;;;;;;0.52;0.52;;;;;;;5.57;100.00;101190.13;5078351;28;20109;-82
2024/03/08 09:13:31;;;;;;;1.52;1.33;;;;;;;5.82;100.00;101215.25;5087908;28;20036;-85
2024/03/08 09:15:56;;;;;;;2.90;2.80;;;;;;;5.82;100.00;101187.47;5085062;28;20040;-82
2024/03/08 09:18:23;;;;;;;6.40;6.07;;;;;;;5.76;100.00;101165.56;5079759;28;20556;-84
2024/03/08 09:20:49;;;;;;;0.40;0.40;;;;;;;5.96;100.00;101213.09;5087653;28;20101;-84
2024/03/08 09:23:20;;;;;;;3.08;2.88;;;;;;;5.85;100.00;101216.25;5086045;28;20770;-82
2024/03/08 09:25:46;;;;;;;1.02;1.02;;;;;;;5.03;100.00;101198.69;5079173;28;20044;-84
2024/03/08 09:28:12;;;;;;;2.22;2.05;;;;;;;4.83;100.00;101216.22;5068978;28;20043;-83
2024/03/08 09:30:40;;;;;;;8.23;7.82;;;;;;;4.88;100.00;101209.44;5076969;28;20092;-83
2024/03/08 09:33:06;;;;;;;0.50;0.50;;;;;;;4.87;100.00;101176.50;5086167;27;20059;-83
2024/03/08 09:35:33;;;;;;;10.02;9.27;;;;;;;5.37;100.00;101231.09;5097719;28;20075;-83
2024/03/08 09:38:00;;;;;;;2.40;2.30;;;;;;;5.86;100.00;101223.19;5093120;28;20090;-81
2024/03/08 09:40:25;;;;;;;2.10;2.00;;;;;;;5.93;100.00;101213.88;5076834;28;20052;-82
2024/03/08 09:42:52;;;;;;;6.90;6.53;;;;;;;5.41;100.00;101209.56;5082029;28;20044;-83
2024/03/08 09:45:22;;;;;;;17.70;16.17;;;;;;;5.69;100.00;101185.34;5059803;28;20134;-82
2024/03/08 09:47:48;;;;;;;2.05;1.95;;;;;;;5.90;100.00;101192.94;5071442;28;20040;-82
2024/03/08 09:50:15;;;;;;;16.55;15.10;;;;;;;6.13;100.00;101224.94;5086386;28;20056;-84
2024/03/08 09:52:43;;;;;;;0.40;0.40;;;;;;;5.31;100.00;101223.06;5072445;28;20395;-83
2024/03/08 09:55:17;;;;;;;0.68;0.68;;;;;;;5.96;100.00;101226.13;5063554;28;20090;-82
2024/03/08 09:58:16;;;;;;;1.85;1.75;;;;;;;6.07;100.00;101198.72;5066333;28;20045;-83
2024/03/08 10:00:33;;;;;;;0.75;0.75;;;;;;;5.69;100.00;101230.47;5051883;28;20447;-81
2024/03/08 10:03:02;;;;;;;2.25;2.15;;;;;;;5.26;100.00;101207.31;5054040;28;20049;-81
2024/03/08 10:05:29;;;;;;;0.95;0.95;;;;;;;5.39;100.00;101204.31;5064106;28;20033;-80
2024/03/08 10:07:54;;;;;;;1.15;1.05;;;;;;;5.33;100.00;101239.63;5067563;28;20052;-82
2024/03/08 10:10:21;;;;;;;9.95;9.40;;;;;;;5.07;100.00;101200.59;5061552;28;20063;-83
2024/03/08 10:12:49;;;;;;;1.67;1.58;;;;;;;4.77;100.00;101200.38;5047573;28;20045;-81
2024/03/08 10:15:16;;;;;;;0.40;0.40;;;;;;;4.74;100.00;101206.34;5065176;28;20482;-81
2024/03/08 10:17:43;;;;;;;0.63;0.63;;;;;;;4.48;100.00;101249.56;5062044;28;20028;-83
2024/03/08 10:20:19;;;;;;;0.70;0.70;;;;;;;4.80;100.00;101232.59;5059546;28;20052;-82
2024/03/08 10:22:45;;;;;;;1.30;1.20;;;;;;;5.23;100.00;101215.00;5056770;28;20400;-81
2024/03/08 10:25:14;;;;;;;0.30;0.30;;;;;;;5.43;100.00;101194.84;5073619;28;20045;-83
2024/03/08 10:27:43;;;;;;;20.38;5.07;;;;;;;5.77;100.00;101225.50;5061710;28;20567;-83
2024/03/08 10:30:14;;;;;;;2.20;2.05;;;;;;;5.50;100.00;101233.28;5058717;28;20112;-82
2024/03/08 10:32:41;;;;;;;0.20;0.20;;;;;;;5.86;100.00;101214.50;5047276;28;20818;-82
2024/03/08 10:35:11;;;;;;;0.90;0.88;;;;;;;5.61;100.00;101202.41;5049905;28;20129;-82
2024/03/08 10:37:46;;;;;;;0.47;0.47;;;;;;;5.57;100.00;101240.47;5059113;28;20139;-80
2024/03/08 10:40:18;;;;;;;1.10;0.90;;;;;;;4.90;100.00;101206.91;5064306;28;20052;-81
2024/03/08 10:43:04;;;;;;;1.05;1.05;;;;;;;5.56;100.00;101230.00;5059296;28;20037;-85
2024/03/08 10:45:43;;;;;;;0.50;0.50;;;;;;;5.92;100.00;101219.91;5047211;28;20098;-80
2024/03/08 10:48:31;;;;;;;0.55;0.55;;;;;;;6.15;100.00;101225.00;5055749;28;20258;-81
2024/03/08 10:50:58;;;;;;;1.40;1.00;;;;;;;6.28;100.00;101178.50;5066939;28;20039;-81
2024/03/08 10:53:27;;;;;;;2.95;2.38;;;;;;;6.13;100.00;101185.84;5083863;28;20530;-81
2024/03/08 10:55:54;;;;;;;23.45;11.98;;;;;;;5.80;100.00;101215.19;5084204;28;20146;-84
2024/03/08 10:58:22;;;;;;;0.50;0.50;;;;;;;5.70;100.00;101190.56;5081920;28;20051;-81
2024/03/08 11:00:51;;;;;;;23.42;3.22;;;;;;;5.10;100.00;101172.06;5076769;28;20094;-82
2024/03/08 11:03:42;;;;;;;2.05;1.95;;;;;;;5.81;100.00;101200.47;5074469;28;20635;-81
2024/03/08 11:06:12;;;;;;;2.47;2.38;;;;;;;5.68;100.00;101147.09;5076653;28;20032;-82
2024/03/08 11:08:39;;;;;;;0.40;0.40;;;;;;;5.31;100.00;101173.63;5069011;28;20495;-82
2024/03/08 11:11:04;;;;;;;6.45;5.40;;;;;;;5.42;100.00;101162.75;5075650;28;20076;-81
2024/03/08 11:13:34;;;;;;;1.15;0.60;;;;;;;6.31;100.00;101199.44;5076226;28;20102;-82
2024/03/08 11:16:00;;;;;;;1.05;1.05;;;;;;;6.40;100.00;101135.41;5084920;28;20125;-82
2024/03/08 11:18:26;;;;;;;0.60;0.60;;;;;;;6.18;100.00;101150.41;5077454;28;20072;-82
2024/03/08 11:20:55;;;;;;;0.85;0.85;;;;;;;6.49;100.00;101157.41;5062993;28;20039;-82
2024/03/08 11:23:26;;;;;;;11.60;10.50;;;;;;;6.84;100.00;101154.00;5066789;28;20054;-81
2024/03/08 11:25:52;;;;;;;0.40;0.40;;;;;;;7.29;100.00;101180.41;5080590;28;20048;-81